Time;durP1;ratioP1;P1;durP2;ratioP2;P2;SDS_P1;SDS_P2;PMS_P1;PMS_P2;Temp;Humidity;BMP_temperature;BMP_pressure;BME280_temperature;BME280_humidity;BME280_pressure;Samples;Min_cycle;Max_cycle;Signal;HPM_P1;HPM_P2
2023/03/16 00:01:38;;;;;;;;;;;;;;;22.38;17.90;98285.19;5051658;28;19990;-87
2023/03/16 00:04:04;;;;;;;;;;;;;;;22.14;18.08;98280.69;5051674;28;19939;-86
2023/03/16 00:06:30;;;;;;;;;;;;;;;22.03;18.35;98288.41;5051785;28;19925;-87
2023/03/16 00:08:57;;;;;;;;;;;;;;;22.05;18.33;98283.19;5049999;28;20403;-87
2023/03/16 00:11:24;;;;;;;;;;;;;;;21.69;18.59;98291.06;5050208;28;19925;-86
2023/03/16 00:13:50;;;;;;;;;;;;;;;21.81;18.38;98286.97;5045370;28;19956;-87
2023/03/16 00:16:17;;;;;;;;;;;;;;;21.86;18.51;98294.94;5047980;28;19927;-87
2023/03/16 00:18:43;;;;;;;;;;;;;;;21.58;18.78;98300.75;5051071;28;19929;-87
2023/03/16 00:21:09;;;;;;;;;;;;;;;21.30;18.67;98296.19;5058118;28;19928;-87
2023/03/16 00:23:35;;;;;;;;;;;;;;;21.56;18.70;98305.97;5053216;28;19924;-86
2023/03/16 00:26:03;;;;;;;;;;;;;;;21.35;18.62;98301.34;5051257;28;19974;-87
2023/03/16 00:28:33;;;;;;;;;;;;;;;20.70;19.30;98307.66;5051283;28;20023;-86
2023/03/16 00:31:01;;;;;;;;;;;;;;;20.69;19.41;98294.94;5047593;28;20017;-87
2023/03/16 00:33:27;;;;;;;;;;;;;;;20.65;19.33;98311.66;5049961;28;20089;-87
2023/03/16 00:36:00;;;;;;;;;;;;;;;20.60;19.37;98303.75;5049394;28;19933;-87
2023/03/16 00:38:28;;;;;;;;;;;;;;;20.13;20.10;98309.03;5049526;28;20692;-87
2023/03/16 00:40:55;;;;;;;;;;;;;;;20.34;19.66;98311.81;5050644;28;19920;-88
2023/03/16 00:43:21;;;;;;;;;;;;;;;20.34;19.81;98303.44;5045340;28;19956;-87
2023/03/16 00:45:47;;;;;;;;;;;;;;;19.89;20.22;98314.25;5053208;28;20579;-87
2023/03/16 00:48:13;;;;;;;;;;;;;;;19.64;20.30;98309.91;5050822;28;19925;-87
2023/03/16 00:50:41;;;;;;;;;;;;;;;19.57;20.61;98319.06;5049982;28;20015;-87
2023/03/16 00:53:07;;;;;;;;;;;;;;;20.03;20.11;98319.00;5050123;28;19927;-87
2023/03/16 00:55:33;;;;;;;;;;;;;;;20.23;20.10;98309.06;5050159;28;19959;-88
2023/03/16 00:57:59;;;;;;;;;;;;;;;20.50;19.54;98310.16;5051285;28;20014;-87
2023/03/16 01:00:27;;;;;;;;;;;;;;;20.59;19.63;98318.09;5043633;28;20016;-87
2023/03/16 01:02:53;;;;;;;;;;;;;;;20.31;19.74;98320.97;5050256;28;20119;-87
2023/03/16 01:05:19;;;;;;;;;;;;;;;20.49;19.49;98330.09;5052509;28;19928;-87
2023/03/16 01:07:45;;;;;;;;;;;;;;;20.61;19.29;98326.84;5049364;28;19921;-88
2023/03/16 01:10:11;;;;;;;;;;;;;;;20.84;19.07;98318.75;5052292;28;19928;-87
2023/03/16 01:12:37;;;;;;;;;;;;;;;20.52;19.44;98327.28;5052006;28;19943;-87
2023/03/16 01:15:03;;;;;;;;;;;;;;;20.47;19.41;98327.69;5048387;28;20300;-87
2023/03/16 01:17:33;;;;;;;;;;;;;;;20.27;19.64;98328.56;5050385;28;19927;-87
2023/03/16 01:20:00;;;;;;;;;;;;;;;20.18;19.62;98330.94;5048830;28;20579;-87
2023/03/16 01:22:26;;;;;;;;;;;;;;;19.93;19.95;98330.97;5050762;28;20019;-87
2023/03/16 01:24:52;;;;;;;;;;;;;;;20.20;19.64;98337.72;5051679;28;19966;-87
2023/03/16 01:27:18;;;;;;;;;;;;;;;20.21;19.79;98338.50;5049418;28;19920;-88
2023/03/16 01:29:44;;;;;;;;;;;;;;;20.74;19.32;98332.78;5051279;28;20341;-88
2023/03/16 01:32:11;;;;;;;;;;;;;;;20.99;18.91;98334.25;5051979;28;19921;-87
2023/03/16 01:34:37;;;;;;;;;;;;;;;20.99;19.01;98325.88;5049494;28;20376;-87
2023/03/16 01:37:03;;;;;;;;;;;;;;;21.37;18.67;98335.25;5046380;28;19939;-87
2023/03/16 01:39:29;;;;;;;;;;;;;;;21.66;18.19;98344.97;5044970;28;19968;-88
2023/03/16 01:41:55;;;;;;;;;;;;;;;21.74;17.80;98345.72;5046623;28;19924;-88
2023/03/16 01:44:26;;;;;;;;;;;;;;;21.75;18.05;98345.31;5046715;28;19925;-87
2023/03/16 01:46:52;;;;;;;;;;;;;;;21.74;17.75;98354.09;5046686;28;19968;-87
2023/03/16 01:49:24;;;;;;;;;;;;;;;21.75;17.85;98353.69;5050298;28;20407;-88
2023/03/16 01:51:50;;;;;;;;;;;;;;;21.77;17.73;98353.28;5048721;28;20288;-87
2023/03/16 01:54:23;;;;;;;;;;;;;;;21.88;17.74;98356.81;5050395;28;19920;-88
2023/03/16 01:56:54;;;;;;;;;;;;;;;21.89;17.44;98352.81;5049030;28;19917;-87
2023/03/16 01:59:22;;;;;;;;;;;;;;;21.80;17.69;98350.47;5051384;28;19921;-87
2023/03/16 02:01:50;;;;;;;;;;;;;;;21.65;17.92;98353.78;5050579;28;19917;-88
2023/03/16 02:04:16;;;;;;;;;;;;;;;21.60;18.01;98357.00;5034542;28;19925;-86
2023/03/16 02:06:43;;;;;;;;;;;;;;;21.55;17.95;98352.66;5049160;28;19925;-87
2023/03/16 02:09:10;;;;;;;;;;;;;;;21.58;17.96;98357.44;5050239;28;19943;-87
2023/03/16 02:11:36;;;;;;;;;;;;;;;21.61;17.58;98361.41;5047768;28;20391;-87
2023/03/16 02:14:06;;;;;;;;;;;;;;;21.70;17.72;98356.94;5048421;28;19952;-87
2023/03/16 02:16:32;;;;;;;;;;;;;;;21.71;17.44;98368.91;5049378;28;19929;-87
2023/03/16 02:18:58;;;;;;;;;;;;;;;21.77;17.65;98370.88;5045544;28;19928;-87
2023/03/16 02:21:34;;;;;;;;;;;;;;;21.42;18.17;98367.53;5049583;28;19932;-88
2023/03/16 02:24:02;;;;;;;;;;;;;;;21.31;18.22;98371.16;5052123;28;19932;-87
2023/03/16 02:26:44;;;;;;;;;;;;;;;21.23;18.38;98374.44;5052956;28;19928;-87
2023/03/16 02:29:10;;;;;;;;;;;;;;;21.33;17.96;98381.97;5053000;28;19921;-87
2023/03/16 02:31:36;;;;;;;;;;;;;;;21.40;17.91;98376.28;5048762;28;19945;-88
2023/03/16 02:34:03;;;;;;;;;;;;;;;21.48;18.00;98388.22;5047980;28;19925;-88
2023/03/16 02:36:29;;;;;;;;;;;;;;;21.30;18.10;98386.34;5054339;28;19982;-88
2023/03/16 02:38:55;;;;;;;;;;;;;;;21.23;17.98;98388.38;5054629;28;20483;-89
2023/03/16 02:41:21;;;;;;;;;;;;;;;21.22;18.41;98386.78;5056299;28;19917;-89
2023/03/16 02:43:57;;;;;;;;;;;;;;;21.32;17.88;98392.31;5055573;28;19967;-89
2023/03/16 02:46:25;;;;;;;;;;;;;;;21.37;17.92;98398.69;5057755;28;20047;-89
2023/03/16 02:49:04;;;;;;;;;;;;;;;21.23;17.72;98399.56;5055758;28;20007;-89
2023/03/16 02:51:31;;;;;;;;;;;;;;;21.25;18.00;98408.31;5045731;28;19921;-89
2023/03/16 02:53:57;;;;;;;;;;;;;;;21.26;17.94;98409.94;5056625;28;19989;-89
2023/03/16 02:56:23;;;;;;;;;;;;;;;21.26;17.93;98410.69;5055251;28;19931;-89
2023/03/16 02:58:49;;;;;;;;;;;;;;;21.28;17.63;98418.69;5054921;28;19921;-89
2023/03/16 03:01:15;;;;;;;;;;;;;;;21.35;17.59;98413.06;5053160;28;20015;-89
2023/03/16 03:03:42;;;;;;;;;;;;;;;21.19;17.78;98419.09;5056786;28;19923;-89
2023/03/16 03:06:08;;;;;;;;;;;;;;;21.17;17.86;98427.09;5056028;28;20030;-88
2023/03/16 03:08:34;;;;;;;;;;;;;;;21.18;17.94;98420.34;5040806;28;19924;-88
2023/03/16 03:11:01;;;;;;;;;;;;;;;21.28;17.92;98432.66;5053801;28;20419;-89
2023/03/16 03:13:27;;;;;;;;;;;;;;;21.31;17.91;98432.63;5056318;28;20425;-89
2023/03/16 03:15:53;;;;;;;;;;;;;;;21.31;17.84;98432.63;5056945;28;19917;-88
2023/03/16 03:18:19;;;;;;;;;;;;;;;21.23;18.07;98430.28;5056644;28;19916;-89
2023/03/16 03:20:45;;;;;;;;;;;;;;;21.29;17.93;98437.81;5054677;28;20284;-89
2023/03/16 03:23:11;;;;;;;;;;;;;;;21.12;17.86;98438.69;5055406;28;19916;-88
2023/03/16 03:25:37;;;;;;;;;;;;;;;20.82;18.00;98446.75;5040549;28;19917;-88
2023/03/16 03:28:06;;;;;;;;;;;;;;;20.02;19.01;98450.41;5051753;28;20019;-89
2023/03/16 03:30:32;;;;;;;;;;;;;;;19.67;19.38;98453.97;5051713;28;20039;-89
2023/03/16 03:32:58;;;;;;;;;;;;;;;19.48;19.86;98457.09;5044369;28;19921;-89
2023/03/16 03:35:24;;;;;;;;;;;;;;;19.79;19.49;98459.94;5064777;28;19921;-88
2023/03/16 03:37:50;;;;;;;;;;;;;;;19.62;19.60;98455.16;5052537;28;19927;-88
2023/03/16 03:40:17;;;;;;;;;;;;;;;19.76;19.55;98471.09;5062022;28;19912;-88
2023/03/16 03:42:43;;;;;;;;;;;;;;;19.78;19.52;98463.94;5055810;28;20292;-88
2023/03/16 03:45:13;;;;;;;;;;;;;;;19.68;19.62;98470.28;5060816;28;19921;-88
2023/03/16 03:47:39;;;;;;;;;;;;;;;19.45;20.12;98485.72;5053005;28;19928;-89
2023/03/16 03:50:06;;;;;;;;;;;;;;;19.48;19.78;98474.63;5047038;28;20319;-88
2023/03/16 03:52:32;;;;;;;;;;;;;;;19.69;19.78;98473.88;5050170;28;19925;-88
2023/03/16 03:54:58;;;;;;;;;;;;;;;19.72;19.61;98479.44;5055047;28;20348;-88
2023/03/16 03:57:24;;;;;;;;;;;;;;;19.92;19.48;98479.88;5056735;28;20019;-87
2023/03/16 03:59:50;;;;;;;;;;;;;;;19.62;19.64;98476.63;5051848;28;19931;-87
2023/03/16 04:02:16;;;;;;;;;;;;;;;19.63;19.57;98478.22;5053555;28;20453;-88
2023/03/16 04:04:43;;;;;;;;;;;;;;;19.58;19.86;98484.97;5054932;28;20020;-87
2023/03/16 04:07:09;;;;;;;;;;;;;;;19.04;20.40;98487.94;5051500;28;19920;-88
2023/03/16 04:09:35;;;;;;;;;;;;;;;19.23;20.24;98495.94;5051037;28;19921;-88
2023/03/16 04:12:02;;;;;;;;;;;;;;;19.42;20.14;98487.31;5049714;28;20012;-88
2023/03/16 04:14:28;;;;;;;;;;;;;;;19.61;19.73;98495.34;5054650;28;19927;-88
2023/03/16 04:16:55;;;;;;;;;;;;;;;19.54;19.75;98497.28;5048129;28;20420;-88
2023/03/16 04:19:21;;;;;;;;;;;;;;;19.42;19.94;98501.22;5053758;28;19928;-88
2023/03/16 04:21:48;;;;;;;;;;;;;;;19.21;20.11;98501.91;5053419;28;20280;-88
2023/03/16 04:24:15;;;;;;;;;;;;;;;19.40;20.01;98509.19;5039760;28;19931;-88
2023/03/16 04:26:43;;;;;;;;;;;;;;;19.72;19.49;98510.06;5053928;28;19943;-88
2023/03/16 04:29:10;;;;;;;;;;;;;;;20.10;19.24;98502.97;5055702;28;19920;-88
2023/03/16 04:31:36;;;;;;;;;;;;;;;20.21;18.90;98505.78;5054425;28;19928;-88
2023/03/16 04:34:02;;;;;;;;;;;;;;;20.31;18.95;98513.38;5051732;28;19931;-87
2023/03/16 04:36:28;;;;;;;;;;;;;;;20.36;18.89;98519.34;5052742;28;20316;-88
2023/03/16 04:38:54;;;;;;;;;;;;;;;20.21;18.88;98509.34;5049352;28;20007;-88
2023/03/16 04:41:20;;;;;;;;;;;;;;;20.24;18.90;98514.16;5051352;28;20024;-88
2023/03/16 04:43:46;;;;;;;;;;;;;;;20.29;18.75;98522.16;5050045;28;19920;-88
2023/03/16 04:46:12;;;;;;;;;;;;;;;20.32;18.80;98512.19;5055366;28;19921;-88
2023/03/16 04:48:38;;;;;;;;;;;;;;;20.50;18.61;98512.97;5049629;28;19917;-88
2023/03/16 04:51:04;;;;;;;;;;;;;;;20.47;18.69;98520.16;5041814;28;19921;-88
2023/03/16 04:53:31;;;;;;;;;;;;;;;20.40;18.73;98517.34;5057316;28;19927;-86
2023/03/16 04:55:57;;;;;;;;;;;;;;;20.48;18.63;98518.16;5051376;28;19959;-88
2023/03/16 04:58:24;;;;;;;;;;;;;;;20.36;18.82;98529.72;5041921;28;20275;-88
2023/03/16 05:00:54;;;;;;;;;;;;;;;20.15;19.17;98533.25;5052202;28;19927;-88
2023/03/16 05:03:20;;;;;;;;;;;;;;;20.03;19.15;98525.28;5039672;28;20377;-89
2023/03/16 05:05:47;;;;;;;;;;;;;;;20.03;19.11;98533.63;5036333;28;20385;-89
2023/03/16 05:08:13;;;;;;;;;;;;;;;19.97;19.24;98530.44;5051509;28;19921;-89
2023/03/16 05:10:39;;;;;;;;;;;;;;;20.08;19.17;98532.44;5049191;28;19923;-90
2023/03/16 05:13:05;;;;;;;;;;;;;;;20.09;19.11;98539.63;5053877;28;19920;-89
2023/03/16 05:15:32;;;;;;;;;;;;;;;20.25;19.10;98537.28;5056112;28;19928;-91
2023/03/16 05:17:58;;;;;;;;;;;;;;;20.35;19.05;98539.28;5051441;28;19921;-90
2023/03/16 05:20:24;;;;;;;;;;;;;;;20.66;18.86;98539.25;5046839;28;19925;-91
2023/03/16 05:22:50;;;;;;;;;;;;;;;20.73;18.53;98546.81;5050552;28;19946;-91
2023/03/16 05:25:17;;;;;;;;;;;;;;;20.90;18.57;98543.22;5049213;28;19924;-91
2023/03/16 05:27:45;;;;;;;;;;;;;;;21.08;18.14;98543.22;5051421;28;19925;-91
2023/03/16 05:30:12;;;;;;;;;;;;;;;21.10;18.30;98540.81;5047320;28;19920;-90
2023/03/16 05:32:38;;;;;;;;;;;;;;;21.00;18.52;98545.22;5063664;28;19927;-90
2023/03/16 05:35:04;;;;;;;;;;;;;;;20.72;18.83;98548.03;5048600;28;21956;-90
2023/03/16 05:37:30;;;;;;;;;;;;;;;20.67;18.81;98552.03;5045572;28;19921;-91
2023/03/16 05:39:57;;;;;;;;;;;;;;;20.57;19.20;98552.81;5053556;28;20004;-90
2023/03/16 05:42:25;;;;;;;;;;;;;;;20.60;19.31;98554.03;5044526;28;19925;-91
2023/03/16 05:44:52;;;;;;;;;;;;;;;21.10;18.96;98552.78;5044367;28;19927;-88
2023/03/16 05:47:19;;;;;;;;;;;;;;;21.54;18.55;98557.81;5047925;28;20352;-89
2023/03/16 05:49:45;;;;;;;;;;;;;;;21.83;18.39;98555.69;5047611;28;19925;-88
2023/03/16 05:52:11;;;;;;;;;;;;;;;21.38;18.58;98553.91;5042491;28;19927;-86
2023/03/16 05:54:37;;;;;;;;;;;;;;;21.15;18.81;98557.94;5044533;28;19921;-87
2023/03/16 05:57:05;;;;;;;;;;;;;;;21.21;19.03;98559.13;5039655;28;19921;-87
2023/03/16 05:59:31;;;;;;;;;;;;;;;21.39;19.08;98564.66;5047097;28;19967;-93
2023/03/16 06:01:57;;;;;;;;;;;;;;;21.63;18.62;98576.94;5041368;28;19933;-92
2023/03/16 06:04:23;;;;;;;;;;;;;;;22.00;18.44;98572.41;5045303;28;20020;-92
2023/03/16 06:06:49;;;;;;;;;;;;;;;22.24;18.24;98570.63;5041278;28;19925;-92
2023/03/16 06:09:15;;;;;;;;;;;;;;;22.45;18.39;98578.88;5048263;28;19982;-92
2023/03/16 06:11:42;;;;;;;;;;;;;;;22.64;17.99;98572.78;5047943;28;20319;-94
2023/03/16 06:14:08;;;;;;;;;;;;;;;22.66;18.32;98572.38;5047503;28;20392;-93
2023/03/16 06:16:35;;;;;;;;;;;;;;;22.87;18.12;98579.78;5052053;28;19928;-91
2023/03/16 06:19:01;;;;;;;;;;;;;;;23.09;17.89;98583.97;5066988;28;20468;-92
2023/03/16 06:21:27;;;;;;;;;;;;;;;23.21;17.81;98583.44;5046937;28;19960;-92
2023/03/16 06:23:53;;;;;;;;;;;;;;;22.66;18.30;98587.16;5041467;28;19921;-92
2023/03/16 06:26:19;;;;;;;;;;;;;;;22.59;18.66;98592.00;5047113;28;19932;-91
2023/03/16 06:28:45;;;;;;;;;;;;;;;22.92;18.55;98588.53;5047043;28;19924;-91
2023/03/16 06:31:11;;;;;;;;;;;;;;;23.09;18.48;98593.16;5051818;28;19927;-94
2023/03/16 06:33:37;;;;;;;;;;;;;;;23.32;18.39;98598.94;5052450;28;19921;-94
2023/03/16 06:36:03;;;;;;;;;;;;;;;23.53;18.14;98605.53;5068364;28;19929;-93
2023/03/16 06:38:29;;;;;;;;;;;;;;;23.36;18.51;98601.75;5052116;28;19921;-95
2023/03/16 06:40:55;;;;;;;;;;;;;;;22.83;18.81;98602.22;5050870;28;20028;-94
2023/03/16 06:43:21;;;;;;;;;;;;;;;22.75;19.21;98609.09;5051484;28;20823;-96
2023/03/16 06:45:47;;;;;;;;;;;;;;;22.16;19.62;98608.25;5042803;28;19925;-91
2023/03/16 06:48:13;;;;;;;;;;;;;;;22.65;19.68;98607.16;5053001;28;20046;-93
2023/03/16 06:50:39;;;;;;;;;;;;;;;22.55;19.08;98608.81;5051699;28;19952;-93
2023/03/16 06:53:05;;;;;;;;;;;;;;;23.01;19.13;98602.84;5053970;28;20004;-93
2023/03/16 06:55:31;;;;;;;;;;;;;;;23.08;18.89;98613.19;5051622;28;19917;-93
2023/03/16 06:57:57;;;;;;;;;;;;;;;21.20;20.70;98613.41;5053348;28;20025;-90
2023/03/16 07:00:24;;;;;;;;;;;;;;;18.37;24.27;98632.03;5053145;28;19924;-91
2023/03/16 07:02:50;;;;;;;;;;;;;;;19.06;22.83;98630.28;5051949;28;19923;-92
2023/03/16 07:05:16;;;;;;;;;;;;;;;16.90;26.24;98637.25;5052425;28;19925;-90
2023/03/16 07:07:42;;;;;;;;;;;;;;;17.09;25.81;98640.72;5056229;28;19979;-92
2023/03/16 07:10:12;;;;;;;;;;;;;;;18.81;23.88;98640.41;5054316;28;19967;-95
2023/03/16 07:12:38;;;;;;;;;;;;;;;17.96;24.85;98636.75;5050324;28;20281;-94
2023/03/16 07:15:05;;;;;;;;;;;;;;;18.91;23.78;98632.16;5057159;28;19920;-93
2023/03/16 07:17:31;;;;;;;;;;;;;;;18.15;24.66;98646.91;5055375;28;19917;-92
2023/03/16 07:19:57;;;;;;;;;;;;;;;19.36;23.57;98650.38;5036431;28;19963;-92
2023/03/16 07:22:23;;;;;;;;;;;;;;;18.31;24.51;98645.50;5036716;28;19967;-93
2023/03/16 07:24:55;;;;;;;;;;;;;;;19.28;23.16;98652.28;5054031;28;19921;-92
2023/03/16 07:27:22;;;;;;;;;;;;;;;18.86;24.44;98648.38;5055825;28;19924;-92
2023/03/16 07:29:49;;;;;;;;;;;;;;;20.01;22.78;98650.28;5042286;28;19929;-90
2023/03/16 07:32:15;;;;;;;;;;;;;;;18.38;24.99;98653.09;5050704;28;19928;-91
2023/03/16 07:34:41;;;;;;;;;;;;;;;16.41;28.40;98660.16;5055768;28;19925;-89
2023/03/16 07:37:07;;;;;;;;;;;;;;;17.41;26.11;98659.84;5037239;28;19939;-91
2023/03/16 07:39:34;;;;;;;;;;;;;;;19.32;23.78;98658.66;5041714;28;20070;-90
2023/03/16 07:42:00;;;;;;;;;;;;;;;20.57;21.57;98658.03;5054652;28;20368;-89
2023/03/16 07:44:27;;;;;;;;;;;;;;;20.12;22.16;98658.72;5076742;28;19920;-89
2023/03/16 07:46:53;;;;;;;;;;;;;;;18.76;25.44;98665.81;5054773;28;19989;-90
2023/03/16 07:49:19;;;;;;;;;;;;;;;20.83;22.64;98654.88;5053381;28;20432;-89
2023/03/16 07:51:45;;;;;;;;;;;;;;;19.73;23.37;98664.91;5052483;28;20384;-89
2023/03/16 07:54:12;;;;;;;;;;;;;;;19.61;22.94;98667.22;5050697;28;19921;-90
2023/03/16 07:56:38;;;;;;;;;;;;;;;20.51;22.51;98665.22;5055867;28;20434;-92
2023/03/16 07:59:04;;;;;;;;;;;;;;;20.87;22.17;98661.25;5056154;28;20407;-92
2023/03/16 08:01:30;;;;;;;;;;;;;;;20.50;21.97;98658.03;5055845;28;20307;-90
2023/03/16 08:03:57;;;;;;;;;;;;;;;19.98;22.69;98662.22;5054912;28;19921;-90
2023/03/16 08:06:24;;;;;;;;;;;;;;;21.12;21.38;98664.84;5053761;28;19928;-89
2023/03/16 08:08:50;;;;;;;;;;;;;;;20.07;23.48;98673.03;5050217;28;19917;-89
2023/03/16 08:11:22;;;;;;;;;;;;;;;18.18;25.16;98671.16;5067949;28;19921;-89
2023/03/16 08:13:52;;;;;;;;;;;;;;;18.84;24.00;98675.78;5050525;28;19920;-89
2023/03/16 08:16:20;;;;;;;;;;;;;;;19.63;23.32;98664.84;5037954;28;19921;-89
2023/03/16 08:18:46;;;;;;;;;;;;;;;19.53;23.60;98671.97;5053690;28;20359;-89
2023/03/16 08:21:13;;;;;;;;;;;;;;;20.41;23.18;98671.56;5048002;28;19925;-89
2023/03/16 08:23:39;;;;;;;;;;;;;;;21.44;21.83;98666.81;5049615;28;19921;-91
2023/03/16 08:26:07;;;;;;;;;;;;;;;22.23;21.08;98666.97;5049102;28;20376;-94
2023/03/16 08:28:34;;;;;;;;;;;;;;;22.30;20.80;98669.72;5035462;28;19925;-90
2023/03/16 08:31:00;;;;;;;;;;;;;;;20.38;22.84;98678.72;5036179;28;19924;-91
2023/03/16 08:33:27;;;;;;;;;;;;;;;19.71;23.71;98674.84;5054204;28;19921;-89
2023/03/16 08:35:53;;;;;;;;;;;;;;;19.90;22.49;98680.94;5054446;28;20020;-89
2023/03/16 08:38:19;;;;;;;;;;;;;;;19.19;23.48;98676.06;5054827;28;20007;-91
2023/03/16 08:40:47;;;;;;;;;;;;;;;18.58;24.48;98680.34;5055036;28;19990;-91
2023/03/16 08:43:16;;;;;;;;;;;;;;;17.24;27.01;98681.41;5054250;28;19966;-89
2023/03/16 08:45:46;;;;;;;;;;;;;;;17.08;27.58;98680.72;5049701;28;19917;-88
2023/03/16 08:48:13;;;;;;;;;;;;;;;18.24;25.51;98676.00;5054684;28;19928;-89
2023/03/16 08:50:40;;;;;;;;;;;;;;;19.15;24.34;98681.63;5054823;28;20292;-88
2023/03/16 08:53:06;;;;;;;;;;;;;;;18.53;25.45;98680.69;5054964;28;19921;-89
2023/03/16 08:55:32;;;;;;;;;;;;;;;17.57;26.88;98688.25;5054859;28;19924;-91
2023/03/16 08:57:58;;;;;;;;;;;;;;;18.58;26.16;98685.09;5055838;28;19917;-90
2023/03/16 09:00:24;;;;;;;;;;;;;;;20.06;23.24;98690.94;5048486;28;19971;-90
2023/03/16 09:02:50;;;;;;;;;;;;;;;21.83;21.63;98670.28;5053851;28;19921;-90
2023/03/16 09:05:17;;;;;;;;;;;;;;;20.76;22.50;98682.78;5053846;28;19994;-89
2023/03/16 09:07:43;;;;;;;;;;;;;;;19.31;23.36;98689.69;5053824;28;19917;-88
2023/03/16 09:10:12;;;;;;;;;;;;;;;18.82;25.69;98692.06;5069948;28;19917;-89
2023/03/16 09:12:39;;;;;;;;;;;;;;;21.46;21.95;98686.75;5053076;28;19921;-90
2023/03/16 09:15:06;;;;;;;;;;;;;;;20.72;23.03;98684.78;5036792;28;20320;-89
2023/03/16 09:26:44;;;;;;;;;;;;;;;24.51;19.06;98676.44;5054195;28;19943;-89
2023/03/16 09:29:10;;;;;;;;;;;;;;;23.26;20.17;98681.06;5046808;28;19920;-89
2023/03/16 09:31:37;;;;;;;;;;;;;;;23.85;19.01;98684.50;5052737;28;19968;-89
2023/03/16 09:34:03;;;;;;;;;;;;;;;22.30;20.93;98680.13;5050826;28;19925;-90
2023/03/16 09:36:30;;;;;;;;;;;;;;;22.06;20.88;98684.63;5054299;28;19959;-89
2023/03/16 09:38:55;;;;;;;;;;;;;;;20.78;22.43;98694.34;5052100;28;19916;-88
2023/03/16 09:41:37;;;;;;;;;;;;;;;21.61;20.13;98691.91;5046599;28;19978;-92
2023/03/16 09:44:06;;;;;;;;;;;;;;;21.45;21.02;98690.78;5042775;28;19967;-88
2023/03/16 09:46:38;;;;;;;;;;;;;;;21.51;19.85;98691.94;5041440;28;19974;-90
2023/03/16 09:49:04;;;;;;;;;;;;;;;22.83;19.24;98691.81;5033338;28;20497;-90
2023/03/16 09:51:36;;;;;;;;;;;;;;;24.16;19.34;98688.94;5034911;28;19918;-88
2023/03/16 09:54:08;;;;;;;;;;;;;;;23.47;19.17;98689.28;5051234;28;20430;-90
2023/03/16 09:56:36;;;;;;;;;;;;;;;21.01;22.12;98697.53;5041993;28;19971;-90
2023/03/16 09:59:09;;;;;;;;;;;;;;;21.30;20.86;98693.59;5033420;28;19921;-90
2023/03/16 10:01:53;;;;;;;;;;;;;;;20.72;21.14;98693.13;5038081;28;19916;-90
2023/03/16 10:04:21;;;;;;;;;;;;;;;23.10;19.60;98681.59;5052609;28;19940;-90
2023/03/16 10:06:52;;;;;;;;;;;;;;;24.20;19.86;98686.09;5053693;28;19921;-90
2023/03/16 10:09:31;;;;;;;;;;;;;;;23.31;19.50;98694.63;5069890;28;19921;-87
2023/03/16 10:11:59;;;;;;;;;;;;;;;19.33;25.45;98709.59;5053665;28;19917;-87
2023/03/16 10:14:28;;;;;;;;;;;;;;;19.13;21.75;98703.50;5054827;28;19928;-87
2023/03/16 10:17:15;;;;;;;;;;;;;;;19.51;23.69;98704.97;5053119;28;19974;-90
2023/03/16 10:19:47;;;;;;;;;;;;;;;20.04;23.19;98699.69;5053684;28;19947;-86
2023/03/16 10:22:25;;;;;;;;;;;;;;;19.05;22.24;98706.59;5052385;28;19960;-88
2023/03/16 10:24:54;;;;;;;;;;;;;;;20.82;21.03;98703.50;5052717;28;20380;-88
2023/03/16 10:27:26;;;;;;;;;;;;;;;19.74;22.54;98708.28;5053281;28;19912;-86
2023/03/16 10:29:52;;;;;;;;;;;;;;;19.55;22.69;98714.16;5033359;28;20000;-86
2023/03/16 10:32:18;;;;;;;;;;;;;;;19.86;22.82;98707.94;5033362;28;19971;-87
2023/03/16 10:34:48;;;;;;;;;;;;;;;20.23;21.13;98704.97;5046150;28;19935;-86
2023/03/16 10:37:14;;;;;;;;;;;;;;;19.68;21.81;98704.28;5052520;28;19931;-86
2023/03/16 10:39:41;;;;;;;;;;;;;;;20.12;20.39;98709.66;5047475;28;19921;-86
2023/03/16 10:42:15;;;;;;;;;;;;;;;20.88;20.35;98710.31;5041357;28;20261;-87
2023/03/16 10:44:42;;;;;;;;;;;;;;;21.75;18.93;98696.69;5057192;28;19967;-87
2023/03/16 10:47:16;;;;;;;;;;;;;;;19.45;25.51;98714.06;5046667;28;19924;-86
2023/03/16 10:49:47;;;;;;;;;;;;;;;19.96;23.87;98703.63;5053315;28;19921;-88
2023/03/16 10:52:50;;;;;;;;;;;;;;;19.68;22.95;98717.41;5056843;28;19967;-84
2023/03/16 10:55:22;;;;;;;;;;;;;;;18.23;24.97;98718.84;4996381;28;20406;-85
2023/03/16 10:57:50;;;;;;;;;;;;;;;17.57;26.30;98711.25;5033806;28;19961;-87
2023/03/16 11:00:21;;;;;;;;;;;;;;;19.64;22.41;98711.81;5055301;28;19927;-87
2023/03/16 11:02:48;;;;;;;;;;;;;;;18.94;23.79;98706.50;5036867;28;19917;-85
2023/03/16 11:05:17;;;;;;;;;;;;;;;17.21;23.93;98712.66;5037141;28;19969;-85
2023/03/16 11:07:50;;;;;;;;;;;;;;;19.07;22.07;98707.81;5037022;28;19917;-87
2023/03/16 11:10:49;;;;;;;;;;;;;;;19.15;24.70;98717.00;5053357;28;20288;-85
2023/03/16 11:13:16;;;;;;;;;;;;;;;17.61;25.96;98711.28;5023961;28;19921;-86
2023/03/16 11:15:51;;;;;;;;;;;;;;;19.73;21.35;98703.91;5056250;28;19944;-87
2023/03/16 11:18:29;;;;;;;;;;;;;;;20.66;22.86;98700.28;5048226;28;19921;-88
2023/03/16 11:20:59;;;;;;;;;;;;;;;23.10;19.12;98687.22;5067077;28;19928;-86
2023/03/16 11:23:30;;;;;;;;;;;;;;;24.30;17.67;98685.16;5036619;28;19920;-87
2023/03/16 11:26:00;;;;;;;;;;;;;;;20.57;22.05;98719.41;5036360;28;19918;-87
2023/03/16 11:28:37;;;;;;;;;;;;;;;21.13;19.93;98699.16;5048497;28;19955;-90
2023/03/16 11:31:18;;;;;;;;;;;;;;;19.65;23.40;98702.25;5048126;28;19925;-87
2023/03/16 11:33:46;;;;;;;;;;;;;;;20.90;20.84;98698.72;5056465;28;19917;-88
2023/03/16 11:36:30;;;;;;;;;;;;;;;18.85;25.92;98700.47;5056535;28;19940;-88
2023/03/16 11:38:57;;;;;;;;;;;;;;;18.49;26.76;98696.53;5056136;28;19924;-87
2023/03/16 11:41:39;;;;;;;;;;;;;;;18.16;24.94;98712.41;5055491;28;20445;-88
2023/03/16 11:44:09;;;;;;;;;;;;;;;19.02;24.08;98710.94;5055854;28;19920;-87
2023/03/16 11:46:40;;;;;;;;;;;;;;;18.09;22.74;98706.75;5055884;28;19979;-87
2023/03/16 11:49:18;;;;;;;;;;;;;;;18.00;23.70;98709.03;5055737;28;19917;-88
2023/03/16 11:51:44;;;;;;;;;;;;;;;17.40;25.87;98724.84;5055467;28;19921;-87
2023/03/16 11:54:28;;;;;;;;;;;;;;;19.03;22.66;98704.19;5054684;28;19917;-89
2023/03/16 11:57:06;;;;;;;;;;;;;;;19.97;22.58;98697.69;5056136;28;19912;-87
2023/03/16 11:59:50;;;;;;;;;;;;;;;18.52;24.33;98706.09;5056013;28;19924;-88
2023/03/16 12:02:26;;;;;;;;;;;;;;;20.51;20.77;98701.47;5055231;28;20457;-89
2023/03/16 12:04:55;;;;;;;;;;;;;;;21.59;19.99;98697.09;5056241;28;19924;-91
2023/03/16 12:07:39;;;;;;;;;;;;;;;21.41;20.45;98703.94;5035914;28;19920;-88
2023/03/16 12:10:05;;;;;;;;;;;;;;;20.95;22.80;98713.09;5038710;28;20384;-87
2023/03/16 12:12:41;;;;;;;;;;;;;;;19.28;25.93;98709.94;5053561;28;20129;-87
2023/03/16 12:15:07;;;;;;;;;;;;;;;18.03;24.28;98717.41;5055302;28;19924;-89
2023/03/16 12:17:36;;;;;;;;;;;;;;;18.39;23.55;98705.53;5038600;28;20023;-89
2023/03/16 12:20:05;;;;;;;;;;;;;;;20.20;20.81;98700.16;5054435;28;19928;-88
2023/03/16 12:22:47;;;;;;;;;;;;;;;21.97;20.08;98696.25;5055468;28;19975;-89
2023/03/16 12:25:19;;;;;;;;;;;;;;;19.55;22.33;98710.56;5055694;28;20008;-89
2023/03/16 12:27:46;;;;;;;;;;;;;;;18.59;23.94;98708.94;5068374;28;19960;-88
2023/03/16 12:30:24;;;;;;;;;;;;;;;19.03;25.34;98703.38;5070672;28;20342;-86
2023/03/16 12:32:54;;;;;;;;;;;;;;;21.03;20.99;98697.94;5058642;28;20011;-88
2023/03/16 12:35:20;;;;;;;;;;;;;;;20.90;23.79;98704.31;5055324;28;19931;-88
2023/03/16 12:38:06;;;;;;;;;;;;;;;19.60;25.08;98711.00;5054807;28;19917;-88
2023/03/16 12:40:41;;;;;;;;;;;;;;;17.66;25.15;98708.19;5054819;28;19921;-88
2023/03/16 12:43:08;;;;;;;;;;;;;;;20.31;22.52;98706.59;5055349;28;19927;-89
2023/03/16 12:45:39;;;;;;;;;;;;;;;21.31;20.84;98697.94;5054685;28;20439;-89
2023/03/16 12:48:08;;;;;;;;;;;;;;;21.98;20.28;98694.25;5053905;28;20007;-89
2023/03/16 12:50:45;;;;;;;;;;;;;;;23.34;18.48;98690.97;5053523;28;19925;-88
2023/03/16 12:53:23;;;;;;;;;;;;;;;23.63;18.32;98694.34;5054889;28;19917;-89
2023/03/16 12:55:50;;;;;;;;;;;;;;;23.59;19.58;98693.59;5055051;28;20368;-89
2023/03/16 12:58:16;;;;;;;;;;;;;;;22.15;23.04;98695.38;5054862;28;19917;-89
2023/03/16 13:00:43;;;;;;;;;;;;;;;21.31;22.75;98703.53;5054123;28;20434;-89
2023/03/16 13:03:14;;;;;;;;;;;;;;;18.93;26.83;98715.22;5054528;28;19983;-87